Tall Kayf, Iraq
Current Conditions -  °F | °C
As of 3:00 PM on Tuesday 21 Oct 2014 (Local Time) from ORER Reporting Station
Scattered Clouds Scattered Clouds  
Wind Chill: 68°   Ceiling: Unl
Heat Index: 68°   Visibility: 6mi
Dew Point: 50°   Wind: 6mph
Humidity: 52%   Direction: 150°SSE
Pressure: 29.91"   Gusts: NA
Location:  36.48°N, 43.13°E
Report Text: ORER 211200Z 15005KT 9999 FEW025 SCT030 20/10 Q1013
Loading
Personal Weather Stations






























Interactive Weather Map
Tropical Storm Tracking
New forecast layout! Learn more

10-Day Weather Forecast

Advertisements
Track Severe Weather on mobile